Time;durP1;ratioP1;P1;durP2;ratioP2;P2;SDS_P1;SDS_P2;PMS_P1;PMS_P2;Temp;Humidity;BMP_temperature;BMP_pressure;BME280_temperature;BME280_humidity;BME280_pressure;Samples;Min_cycle;Max_cycle;Signal;HPM_P1;HPM_P2
2023/05/27 00:01:26;;;;;;;12.73;3.38;;;14.00;96.30;;;;;;5014257;28;20041;-45
2023/05/27 00:03:51;;;;;;;16.20;4.10;;;14.00;96.40;;;;;;5014067;28;20030;-46
2023/05/27 00:06:17;;;;;;;8.43;2.95;;;14.00;96.50;;;;;;5012799;28;20161;-44
2023/05/27 00:08:42;;;;;;;20.27;3.97;;;13.90;96.60;;;;;;5014753;28;20167;-47
2023/05/27 00:11:08;;;;;;;9.38;3.00;;;13.90;96.60;;;;;;5014911;28;20018;-47
2023/05/27 00:13:34;;;;;;;13.43;3.95;;;13.90;96.70;;;;;;5014767;28;20034;-46
2023/05/27 00:16:00;;;;;;;12.82;3.85;;;13.80;96.70;;;;;;5014606;28;20026;-46
2023/05/27 00:18:25;;;;;;;21.75;12.30;;;13.80;97.00;;;;;;5014971;28;20029;-46
2023/05/27 00:20:51;;;;;;;91.07;47.80;;;13.70;97.00;;;;;;5013330;28;20065;-47
2023/05/27 00:23:17;;;;;;;11.05;4.43;;;13.80;97.00;;;;;;5013529;28;20044;-45
2023/05/27 00:25:42;;;;;;;16.58;4.13;;;13.70;97.00;;;;;;5014012;28;20439;-47
2023/05/27 00:28:08;;;;;;;13.63;4.05;;;13.70;97.10;;;;;;5013731;28;20141;-47
2023/05/27 00:30:33;;;;;;;14.95;3.78;;;13.70;97.20;;;;;;5012843;28;20033;-49
2023/05/27 00:32:59;;;;;;;23.75;3.95;;;13.70;97.20;;;;;;5012153;28;20093;-49
2023/05/27 00:35:24;;;;;;;11.05;3.40;;;13.60;97.10;;;;;;5013617;28;20042;-47
2023/05/27 00:37:50;;;;;;;18.90;4.72;;;13.60;97.50;;;;;;5013422;28;20074;-49
2023/05/27 00:40:21;;;;;;;16.30;3.75;;;13.60;97.50;;;;;;5013518;28;20084;-50
2023/05/27 00:42:46;;;;;;;11.68;3.72;;;13.50;97.60;;;;;;5013336;28;20018;-47
2023/05/27 00:45:12;;;;;;;12.07;4.32;;;13.50;97.60;;;;;;5012551;28;20088;-48
2023/05/27 00:47:38;;;;;;;13.40;4.25;;;13.50;97.70;;;;;;5012849;28;20068;-51
2023/05/27 00:50:05;;;;;;;12.70;3.83;;;13.40;97.80;;;;;;5012884;28;20045;-49
2023/05/27 00:52:31;;;;;;;22.38;5.15;;;13.40;97.80;;;;;;5013220;28;20022;-52
2023/05/27 00:54:57;;;;;;;12.15;3.63;;;13.40;97.90;;;;;;5012576;28;20165;-48
2023/05/27 00:57:23;;;;;;;12.18;3.70;;;13.40;98.00;;;;;;5012596;28;20375;-49
2023/05/27 00:59:48;;;;;;;9.98;3.85;;;13.40;98.10;;;;;;5013495;28;20140;-47
2023/05/27 01:02:14;;;;;;;9.88;3.00;;;13.30;98.20;;;;;;5013462;28;20036;-49
2023/05/27 01:04:42;;;;;;;10.85;3.83;;;13.20;98.30;;;;;;5012713;28;20105;-48
2023/05/27 01:07:35;;;;;;;14.50;3.00;;;13.20;98.30;;;;;;5013257;28;20030;-49
2023/05/27 01:10:03;;;;;;;22.88;4.88;;;13.20;98.40;;;;;;5012711;28;20559;-51
2023/05/27 01:12:48;;;;;;;16.33;4.43;;;13.10;98.50;;;;;;5013453;28;20041;-49
2023/05/27 01:15:14;;;;;;;16.83;3.60;;;13.10;98.60;;;;;;4993814;28;20026;-50
2023/05/27 01:17:42;;;;;;;11.30;3.00;;;13.10;98.60;;;;;;4992257;28;20170;-47
2023/05/27 01:20:13;;;;;;;13.98;3.47;;;13.10;98.60;;;;;;4993180;28;20019;-48
2023/05/27 01:22:41;;;;;;;14.18;3.78;;;13.00;98.60;;;;;;4993544;28;20037;-49
2023/05/27 01:25:07;;;;;;;12.88;3.63;;;13.10;99.00;;;;;;5012959;28;20018;-50
2023/05/27 01:27:33;;;;;;;13.13;3.42;;;13.00;98.80;;;;;;5013007;28;20527;-47
2023/05/27 01:29:59;;;;;;;11.32;4.18;;;13.00;98.80;;;;;;5012332;28;20036;-49
2023/05/27 01:32:42;;;;;;;18.83;3.88;;;13.10;98.80;;;;;;5012712;28;20077;-48
2023/05/27 01:35:22;;;;;;;13.75;3.63;;;13.00;98.80;;;;;;4995532;28;20513;-49
2023/05/27 01:37:50;;;;;;;15.82;4.63;;;13.00;99.00;;;;;;5012529;28;20494;-50
2023/05/27 01:40:17;;;;;;;9.57;2.90;;;13.00;99.10;;;;;;5012221;28;20413;-48
2023/05/27 01:42:43;;;;;;;17.48;3.95;;;12.90;99.20;;;;;;5011858;28;20065;-47
2023/05/27 01:45:09;;;;;;;13.32;3.47;;;12.90;99.20;;;;;;5012997;28;20034;-48
2023/05/27 01:47:35;;;;;;;10.80;3.55;;;12.90;99.30;;;;;;5012834;28;20029;-51
2023/05/27 01:50:01;;;;;;;15.43;3.25;;;12.80;99.30;;;;;;5012592;28;20366;-46
2023/05/27 01:52:26;;;;;;;13.70;3.78;;;12.80;99.40;;;;;;5012498;28;20026;-49
2023/05/27 01:54:52;;;;;;;16.20;3.58;;;12.80;99.40;;;;;;5012541;28;20110;-48
2023/05/27 01:57:18;;;;;;;12.93;3.38;;;12.70;99.50;;;;;;5012419;28;20033;-48
2023/05/27 01:59:43;;;;;;;19.33;4.38;;;12.70;99.50;;;;;;5010887;28;20463;-49
2023/05/27 02:02:09;;;;;;;9.45;2.83;;;12.70;99.60;;;;;;5012536;28;20037;-47
2023/05/27 02:04:36;;;;;;;8.77;3.38;;;12.70;99.70;;;;;;5012000;28;20532;-47
2023/05/27 02:07:01;;;;;;;13.27;4.15;;;12.70;99.70;;;;;;5012540;28;20029;-52
2023/05/27 02:09:27;;;;;;;15.27;3.15;;;12.60;99.80;;;;;;5012095;28;20036;-52
2023/05/27 02:11:52;;;;;;;18.35;3.95;;;12.60;99.80;;;;;;5012665;28;20478;-49
2023/05/27 02:14:18;;;;;;;13.63;3.92;;;12.60;99.90;;;;;;5010969;28;20037;-48
2023/05/27 02:16:44;;;;;;;13.50;3.45;;;12.50;99.90;;;;;;5012269;28;20116;-49
2023/05/27 02:19:09;;;;;;;16.35;3.85;;;12.50;99.90;;;;;;5011916;28;20398;-47
2023/05/27 02:21:38;;;;;;;9.50;3.10;;;12.40;99.90;;;;;;5012333;28;20097;-47
2023/05/27 02:24:03;;;;;;;16.83;3.88;;;12.40;99.90;;;;;;5011581;28;20105;-47
2023/05/27 02:26:29;;;;;;;15.30;4.13;;;12.40;99.90;;;;;;5012174;28;20076;-49
2023/05/27 02:28:54;;;;;;;12.77;3.35;;;12.30;99.90;;;;;;5012030;28;20493;-50
2023/05/27 02:31:21;;;;;;;10.07;4.07;;;12.30;99.90;;;;;;5010369;28;20032;-47
2023/05/27 02:33:46;;;;;;;15.45;3.55;;;12.30;99.90;;;;;;5011185;28;20129;-50
2023/05/27 02:36:12;;;;;;;10.50;3.05;;;12.20;99.90;;;;;;5010780;28;20527;-49
2023/05/27 02:38:38;;;;;;;11.07;3.70;;;12.20;99.90;;;;;;5011933;28;20064;-50
2023/05/27 02:41:03;;;;;;;12.73;3.40;;;12.10;99.90;;;;;;5011500;28;20026;-49
2023/05/27 02:43:29;;;;;;;17.85;4.72;;;12.10;99.90;;;;;;5011324;28;20038;-47
2023/05/27 02:45:55;;;;;;;11.98;3.70;;;12.10;99.90;;;;;;5011449;28;20541;-47
2023/05/27 02:48:20;;;;;;;14.20;4.43;;;12.10;99.90;;;;;;5011926;28;20022;-52
2023/05/27 02:50:46;;;;;;;23.45;4.38;;;12.00;99.90;;;;;;5011047;28;20021;-48
2023/05/27 02:53:11;;;;;;;16.92;4.07;;;12.00;99.90;;;;;;5011236;28;20030;-49
2023/05/27 02:55:37;;;;;;;8.93;3.10;;;12.00;99.90;;;;;;5010265;28;20473;-47
2023/05/27 02:58:04;;;;;;;11.88;3.33;;;11.90;99.90;;;;;;5011799;28;20076;-48
2023/05/27 03:00:30;;;;;;;16.40;3.70;;;11.90;99.90;;;;;;5011218;28;20018;-49
2023/05/27 03:02:56;;;;;;;13.50;3.65;;;11.90;99.90;;;;;;5011096;28;20076;-50
2023/05/27 03:05:21;;;;;;;15.13;4.00;;;11.80;99.90;;;;;;5011612;28;20030;-49
2023/05/27 03:07:47;;;;;;;11.75;2.83;;;11.80;99.90;;;;;;5011633;28;20453;-50
2023/05/27 03:10:12;;;;;;;8.25;3.25;;;11.80;99.90;;;;;;5009954;28;20026;-50
2023/05/27 03:12:38;;;;;;;11.25;3.50;;;11.80;99.90;;;;;;5011231;28;20113;-51
2023/05/27 03:15:04;;;;;;;14.68;4.70;;;11.70;99.90;;;;;;5011280;28;20034;-47
2023/05/27 03:17:29;;;;;;;10.38;3.80;;;11.70;99.90;;;;;;5011144;28;20390;-49
2023/05/27 03:19:55;;;;;;;17.52;3.58;;;11.70;99.90;;;;;;5009836;28;20022;-50
2023/05/27 03:22:21;;;;;;;10.27;3.20;;;11.70;99.90;;;;;;5011135;28;20029;-49
2023/05/27 03:24:47;;;;;;;16.23;4.00;;;11.70;99.90;;;;;;5011340;28;20026;-49
2023/05/27 03:27:12;;;;;;;17.00;4.90;;;11.60;99.90;;;;;;5011391;28;20100;-49
2023/05/27 03:29:38;;;;;;;13.80;3.75;;;11.60;99.90;;;;;;5011197;28;20023;-47
2023/05/27 03:32:03;;;;;;;15.93;4.35;;;11.50;99.90;;;;;;5011207;28;20455;-49
2023/05/27 03:34:29;;;;;;;9.38;3.45;;;11.50;99.90;;;;;;5011070;28;20038;-50
2023/05/27 03:36:54;;;;;;;9.88;4.60;;;11.50;99.90;;;;;;5011217;28;20401;-48
2023/05/27 03:39:20;;;;;;;20.98;4.40;;;11.50;99.90;;;;;;5011030;28;20026;-50
2023/05/27 03:41:47;;;;;;;28.23;6.22;;;11.50;99.90;;;;;;5011366;28;20022;-47
2023/05/27 03:44:12;;;;;;;18.95;4.65;;;11.50;99.90;;;;;;5010578;28;20244;-48
2023/05/27 03:46:38;;;;;;;25.75;5.22;;;11.50;99.90;;;;;;5011335;28;20036;-46
2023/05/27 03:49:03;;;;;;;17.48;5.45;;;11.40;99.90;;;;;;5010717;28;20041;-47
2023/05/27 03:51:29;;;;;;;24.20;5.47;;;11.40;99.90;;;;;;5011046;28;20482;-51
2023/05/27 03:53:55;;;;;;;19.50;5.47;;;11.40;99.90;;;;;;5010522;28;20072;-48
2023/05/27 03:56:20;;;;;;;20.92;5.20;;;11.40;99.90;;;;;;5011143;28;20462;-49
2023/05/27 03:58:46;;;;;;;15.02;4.57;;;11.40;99.90;;;;;;5011153;28;20067;-51
2023/05/27 04:01:11;;;;;;;12.38;3.72;;;11.40;99.90;;;;;;5010803;28;20072;-48
2023/05/27 04:03:39;;;;;;;16.35;4.47;;;11.40;99.90;;;;;;5010728;28;20348;-46
2023/05/27 04:06:05;;;;;;;16.00;4.38;;;11.30;99.90;;;;;;5012688;28;20104;-46
2023/05/27 04:08:31;;;;;;;12.13;3.42;;;11.40;99.90;;;;;;5015112;28;20017;-46
2023/05/27 04:10:57;;;;;;;16.88;5.00;;;11.40;99.90;;;;;;5014083;28;20029;-45
2023/05/27 04:13:22;;;;;;;13.52;4.47;;;11.40;99.90;;;;;;5014091;28;20021;-45
2023/05/27 04:15:48;;;;;;;14.63;4.43;;;11.40;99.90;;;;;;5014673;28;20410;-45
2023/05/27 04:18:14;;;;;;;17.33;4.22;;;11.50;99.90;;;;;;5014712;28;20100;-47
2023/05/27 04:20:42;;;;;;;13.50;4.50;;;11.40;99.90;;;;;;5013850;28;20034;-45
2023/05/27 04:23:08;;;;;;;14.38;5.13;;;11.50;99.90;;;;;;5014163;28;20481;-46
2023/05/27 04:25:37;;;;;;;13.00;4.03;;;11.40;99.90;;;;;;5014639;28;20109;-46
2023/05/27 04:28:06;;;;;;;13.98;5.00;;;11.50;99.90;;;;;;5013770;28;20399;-47
2023/05/27 04:30:32;;;;;;;18.70;5.22;;;11.50;99.90;;;;;;5013957;28;20112;-47
2023/05/27 04:32:59;;;;;;;13.70;4.28;;;11.60;99.90;;;;;;5014293;28;20507;-46
2023/05/27 04:35:25;;;;;;;13.05;4.28;;;11.70;99.90;;;;;;5013996;28;20037;-47
2023/05/27 04:37:50;;;;;;;22.15;4.85;;;11.70;99.90;;;;;;5012832;28;20406;-47
2023/05/27 04:40:16;;;;;;;15.52;3.90;;;11.70;99.90;;;;;;5014224;28;20030;-46
2023/05/27 04:42:43;;;;;;;17.85;4.15;;;11.80;99.90;;;;;;5013843;28;20029;-49
2023/05/27 04:45:11;;;;;;;14.75;4.32;;;11.90;99.90;;;;;;5014146;28;20022;-46
2023/05/27 04:47:37;;;;;;;22.80;4.45;;;12.00;99.90;;;;;;5013846;28;20022;-49
2023/05/27 04:50:03;;;;;;;12.48;4.80;;;12.40;99.90;;;;;;5013617;28;20052;-47
2023/05/27 04:52:29;;;;;;;10.55;3.75;;;12.60;99.90;;;;;;5013919;28;20029;-48
2023/05/27 04:54:55;;;;;;;10.13;3.75;;;13.00;99.90;;;;;;5014064;28;20030;-51
2023/05/27 04:57:21;;;;;;;13.27;4.55;;;13.30;99.90;;;;;;5013628;28;20038;-46
2023/05/27 05:00:36;;;;;;;13.77;4.50;;;13.60;99.90;;;;;;5013047;28;20034;-50
2023/05/27 05:02:37;;;;;;;14.27;4.68;;;13.70;99.90;;;;;;5009303;28;20030;-50
2023/05/27 05:05:14;;;;;;;13.55;4.00;;;13.90;99.90;;;;;;5013538;28;20049;-48
2023/05/27 05:07:41;;;;;;;19.98;5.53;;;14.00;99.90;;;;;;5013585;28;20030;-48
2023/05/27 05:10:08;;;;;;;17.90;4.18;;;14.30;99.90;;;;;;5013277;28;20080;-47
2023/05/27 05:12:34;;;;;;;15.18;5.50;;;14.40;99.50;;;;;;5013196;28;20088;-48
2023/05/27 05:14:59;;;;;;;15.80;4.95;;;14.60;99.00;;;;;;5013101;28;20490;-46
2023/05/27 05:17:25;;;;;;;22.80;4.78;;;14.60;99.20;;;;;;5013496;28;20114;-47
2023/05/27 05:19:52;;;;;;;17.85;4.25;;;14.90;98.80;;;;;;5011613;28;20026;-46
2023/05/27 05:22:22;;;;;;;16.35;4.35;;;15.20;98.60;;;;;;5013165;28;20026;-46
2023/05/27 05:24:51;;;;;;;15.30;3.63;;;15.20;97.60;;;;;;5013506;28;20393;-49
2023/05/27 05:27:17;;;;;;;13.23;4.05;;;15.50;97.70;;;;;;5013372;28;20034;-51
2023/05/27 05:29:43;;;;;;;21.08;3.63;;;15.30;97.60;;;;;;5012384;28;20091;-47
2023/05/27 05:32:11;;;;;;;14.32;4.65;;;15.50;97.60;;;;;;5012932;28;20030;-48
2023/05/27 05:34:37;;;;;;;10.82;3.30;;;15.50;97.30;;;;;;5012910;28;20413;-50
2023/05/27 05:37:02;;;;;;;14.75;4.75;;;15.60;96.80;;;;;;5012814;28;20029;-47
2023/05/27 05:39:28;;;;;;;18.50;4.20;;;15.80;97.30;;;;;;5012747;28;20041;-48
2023/05/27 05:41:53;;;;;;;17.17;4.25;;;15.50;97.00;;;;;;5012761;28;20109;-45
2023/05/27 05:44:20;;;;;;;12.52;4.28;;;15.70;97.00;;;;;;5012644;28;20429;-46
2023/05/27 05:46:46;;;;;;;10.63;3.65;;;16.00;96.50;;;;;;5013014;28;20030;-48
2023/05/27 05:49:11;;;;;;;17.00;4.75;;;15.80;96.70;;;;;;5012071;28;20045;-49
2023/05/27 05:51:36;;;;;;;19.52;4.40;;;16.00;96.70;;;;;;5012703;28;20033;-48
2023/05/27 05:54:02;;;;;;;10.00;3.53;;;16.10;96.30;;;;;;5012519;28;20088;-46
2023/05/27 05:56:28;;;;;;;14.07;3.90;;;16.20;96.40;;;;;;5011507;28;20426;-51
2023/05/27 05:58:53;;;;;;;29.42;5.13;;;16.40;95.90;;;;;;5011290;28;20029;-50
2023/05/27 06:01:19;;;;;;;11.43;3.60;;;16.50;95.70;;;;;;5012504;28;20037;-50
2023/05/27 06:03:44;;;;;;;13.98;3.80;;;16.60;95.60;;;;;;5012109;28;20405;-52
2023/05/27 06:06:10;;;;;;;14.40;4.00;;;16.70;95.30;;;;;;5010930;28;20109;-47
2023/05/27 06:08:36;;;;;;;9.77;4.35;;;17.00;95.00;;;;;;5012731;28;20107;-48
2023/05/27 06:11:02;;;;;;;17.23;4.72;;;16.70;95.00;;;;;;5012205;28;20022;-48
2023/05/27 06:13:27;;;;;;;14.73;4.15;;;16.50;95.10;;;;;;5024056;23;20129;-46
2023/05/27 06:15:55;;;;;;;13.00;3.90;;;16.60;95.10;;;;;;5010969;28;20113;-43
2023/05/27 06:18:20;;;;;;;16.42;3.90;;;17.10;94.80;;;;;;5012747;28;20022;-41
2023/05/27 06:20:46;;;;;;;10.70;3.72;;;17.10;94.50;;;;;;5012224;28;20028;-44
2023/05/27 06:23:12;;;;;;;13.30;3.97;;;17.10;94.40;;;;;;5011730;28;20026;-42
2023/05/27 06:25:37;;;;;;;6.75;3.88;;;17.30;94.40;;;;;;5012249;28;20033;-42
2023/05/27 06:28:03;;;;;;;9.95;3.58;;;18.00;94.00;;;;;;5011805;28;20076;-40
2023/05/27 06:30:28;;;;;;;12.93;3.72;;;18.50;93.60;;;;;;5011526;28;20092;-44
2023/05/27 06:32:54;;;;;;;10.20;4.00;;;18.70;92.50;;;;;;5011663;28;20048;-41
2023/05/27 06:35:19;;;;;;;10.10;4.28;;;18.90;92.30;;;;;;5012073;28;20033;-48
2023/05/27 06:37:45;;;;;;;17.77;4.13;;;18.50;92.70;;;;;;5011938;28;20121;-39
2023/05/27 06:40:11;;;;;;;16.75;4.03;;;18.30;92.80;;;;;;5011907;28;20018;-42
2023/05/27 06:42:37;;;;;;;17.30;3.83;;;18.50;92.40;;;;;;5011000;28;20037;-44
2023/05/27 06:45:03;;;;;;;12.57;4.35;;;18.90;92.50;;;;;;5012010;28;20029;-43
2023/05/27 06:47:28;;;;;;;9.90;3.25;;;19.00;91.90;;;;;;5010765;28;20084;-42
2023/05/27 06:49:54;;;;;;;15.10;3.25;;;19.30;91.90;;;;;;5011639;28;20088;-41
2023/05/27 06:52:20;;;;;;;11.98;3.63;;;19.40;91.30;;;;;;5011459;28;20022;-49
2023/05/27 06:54:46;;;;;;;13.23;4.15;;;19.70;91.30;;;;;;5011187;28;20108;-44
2023/05/27 06:57:12;;;;;;;17.92;4.07;;;19.90;90.90;;;;;;5012137;28;20025;-51
2023/05/27 06:59:38;;;;;;;11.30;3.47;;;20.00;90.50;;;;;;5011942;28;20064;-46
2023/05/27 07:02:03;;;;;;;11.07;3.72;;;20.10;90.40;;;;;;5010131;28;20561;-47
2023/05/27 07:04:29;;;;;;;12.13;3.65;;;20.20;90.00;;;;;;5012040;28;20088;-45
2023/05/27 07:06:54;;;;;;;11.07;4.05;;;20.20;90.50;;;;;;5011687;28;20034;-46
2023/05/27 07:09:20;;;;;;;9.75;4.05;;;20.70;90.10;;;;;;5011297;28;20038;-47
2023/05/27 07:11:45;;;;;;;12.60;3.60;;;20.80;88.60;;;;;;5011518;28;20470;-44
2023/05/27 07:14:11;;;;;;;12.68;3.85;;;21.40;88.00;;;;;;5011394;28;20046;-46
2023/05/27 07:16:37;;;;;;;15.57;4.10;;;20.70;88.50;;;;;;5011385;28;20087;-46
2023/05/27 07:19:02;;;;;;;11.70;3.55;;;20.70;88.90;;;;;;5011616;28;20394;-46
2023/05/27 07:21:28;;;;;;;13.48;3.90;;;20.60;88.90;;;;;;5010093;28;20022;-43
2023/05/27 07:23:53;;;;;;;9.95;3.50;;;20.50;88.70;;;;;;5010958;28;20055;-44
2023/05/27 07:26:19;;;;;;;10.55;3.35;;;20.30;89.20;;;;;;5011096;28;20030;-44
2023/05/27 07:28:46;;;;;;;11.68;3.63;;;20.20;89.40;;;;;;5011339;28;20296;-45
2023/05/27 07:31:11;;;;;;;17.05;4.25;;;20.60;89.20;;;;;;5010597;28;20375;-47
2023/05/27 07:33:37;;;;;;;13.30;3.80;;;21.10;88.00;;;;;;5011044;28;20042;-44
2023/05/27 07:36:02;;;;;;;11.60;4.53;;;21.20;87.00;;;;;;5010951;28;20034;-46
2023/05/27 07:38:28;;;;;;;10.80;4.00;;;21.10;87.90;;;;;;5011068;28;20026;-45
2023/05/27 07:40:53;;;;;;;11.25;3.30;;;21.70;87.00;;;;;;5010099;28;20030;-46
2023/05/27 07:43:19;;;;;;;9.48;3.20;;;21.80;85.50;;;;;;5014707;28;20105;-46
2023/05/27 07:45:44;;;;;;;14.77;4.05;;;21.80;86.60;;;;;;5014804;28;20111;-45
2023/05/27 07:48:10;;;;;;;13.70;3.60;;;22.60;85.80;;;;;;5013818;28;20026;-45
2023/05/27 07:50:35;;;;;;;13.85;3.65;;;22.80;83.90;;;;;;5014357;28;20037;-44
2023/05/27 07:53:01;;;;;;;12.00;3.05;;;22.20;84.10;;;;;;5014555;28;20482;-46
2023/05/27 07:55:26;;;;;;;11.75;3.47;;;21.70;85.50;;;;;;5014970;28;20038;-45
2023/05/27 07:57:54;;;;;;;13.55;4.13;;;21.50;85.80;;;;;;5014917;28;20425;-48
2023/05/27 08:00:20;;;;;;;13.50;3.33;;;21.80;85.50;;;;;;5014328;28;20501;-45
2023/05/27 08:02:45;;;;;;;14.25;3.50;;;21.50;86.00;;;;;;5014402;28;20033;-45
2023/05/27 08:05:11;;;;;;;11.95;3.38;;;21.90;85.90;;;;;;5014432;28;20135;-51
2023/05/27 08:07:36;;;;;;;11.55;3.60;;;21.60;85.10;;;;;;5014804;28;20053;-45
2023/05/27 08:10:02;;;;;;;10.27;3.67;;;21.70;85.30;;;;;;5014196;28;20036;-44
2023/05/27 08:12:28;;;;;;;12.18;3.17;;;21.70;85.30;;;;;;5014501;28;20053;-46
2023/05/27 08:14:53;;;;;;;9.77;2.97;;;21.80;86.00;;;;;;5015036;28;20509;-45
2023/05/27 08:17:19;;;;;;;12.80;3.95;;;21.70;86.40;;;;;;5014710;28;20034;-44
2023/05/27 08:19:44;;;;;;;12.02;3.30;;;21.70;85.40;;;;;;5014023;28;20033;-45
2023/05/27 08:22:10;;;;;;;15.73;4.22;;;21.60;86.50;;;;;;5013971;28;20025;-47
2023/05/27 08:24:36;;;;;;;14.77;3.72;;;22.20;85.20;;;;;;5014410;28;20018;-46
2023/05/27 08:27:02;;;;;;;12.20;3.58;;;21.90;85.00;;;;;;5014296;28;20030;-45
2023/05/27 08:29:30;;;;;;;14.95;3.53;;;21.40;85.30;;;;;;5013923;28;20029;-48
2023/05/27 08:31:56;;;;;;;11.27;3.72;;;20.80;86.70;;;;;;5013680;28;20022;-41
2023/05/27 08:34:22;;;;;;;10.93;3.58;;;20.70;88.30;;;;;;5012794;28;20501;-41
2023/05/27 08:36:48;;;;;;;13.52;4.15;;;20.50;88.60;;;;;;5013751;28;20022;-47
2023/05/27 08:39:13;;;;;;;11.68;3.55;;;20.50;87.90;;;;;;5013850;28;20033;-43
2023/05/27 08:41:39;;;;;;;11.38;3.50;;;20.50;87.90;;;;;;5014280;28;20018;-44
2023/05/27 08:44:05;;;;;;;14.85;3.80;;;20.30;88.30;;;;;;5014056;28;20030;-45
2023/05/27 08:46:32;;;;;;;10.82;3.45;;;20.50;88.90;;;;;;5011984;28;20030;-43
2023/05/27 08:48:58;;;;;;;18.83;4.45;;;20.30;89.80;;;;;;5014327;28;20076;-41
2023/05/27 08:51:24;;;;;;;10.95;4.00;;;20.40;88.70;;;;;;5014000;28;20453;-45
2023/05/27 08:53:50;;;;;;;12.15;3.38;;;20.30;89.20;;;;;;5013233;28;20113;-45
2023/05/27 08:56:18;;;;;;;8.95;3.45;;;20.50;89.50;;;;;;5013888;28;20030;-41
2023/05/27 08:58:44;;;;;;;12.40;3.75;;;20.70;89.80;;;;;;5013911;28;20033;-47
2023/05/27 09:01:10;;;;;;;12.73;4.25;;;20.70;89.10;;;;;;5009852;28;20482;-43
2023/05/27 09:03:36;;;;;;;10.35;3.00;;;20.60;88.20;;;;;;5010872;28;20037;-52
2023/05/27 09:06:04;;;;;;;16.13;5.13;;;20.50;89.60;;;;;;5012068;28;20053;-45
2023/05/27 09:08:31;;;;;;;15.35;5.13;;;20.70;88.70;;;;;;5013755;28;20068;-43
2023/05/27 09:10:56;;;;;;;13.05;3.38;;;20.80;89.00;;;;;;5013525;28;20440;-43
2023/05/27 09:13:26;;;;;;;16.33;4.60;;;20.90;89.40;;;;;;5013778;28;20026;-44
2023/05/27 09:15:59;;;;;;;12.88;3.50;;;20.80;88.40;;;;;;5014584;28;20072;-50
2023/05/27 09:18:29;;;;;;;12.77;3.78;;;20.60;89.00;;;;;;5014786;28;20478;-46
2023/05/27 09:20:58;;;;;;;18.65;4.88;;;20.70;90.00;;;;;;5013023;28;20057;-49
2023/05/27 09:23:25;;;;;;;8.98;3.47;;;20.90;89.50;;;;;;5011974;28;20052;-44
2023/05/27 09:25:50;;;;;;;16.30;3.13;;;20.80;88.80;;;;;;5013355;28;20101;-44
2023/05/27 09:28:24;;;;;;;10.68;3.90;;;20.90;89.20;;;;;;5013388;28;20495;-49
2023/05/27 09:31:04;;;;;;;16.13;5.22;;;21.00;88.60;;;;;;5012845;28;20120;-44
2023/05/27 09:33:32;;;;;;;9.82;3.38;;;20.80;88.90;;;;;;5012303;28;20021;-40
2023/05/27 09:35:58;;;;;;;11.07;3.95;;;21.00;89.60;;;;;;5008996;28;20018;-46
2023/05/27 09:38:24;;;;;;;12.82;3.90;;;20.90;88.60;;;;;;5012951;28;20026;-44
2023/05/27 09:40:50;;;;;;;14.27;3.45;;;21.00;90.50;;;;;;5012291;28;20029;-44
2023/05/27 09:43:18;;;;;;;13.05;3.80;;;21.00;88.20;;;;;;5012306;28;20045;-45
2023/05/27 09:45:44;;;;;;;11.13;4.00;;;21.00;88.60;;;;;;5004983;28;20490;-47
2023/05/27 09:48:13;;;;;;;12.27;3.92;;;21.00;89.00;;;;;;4993301;28;20490;-45
2023/05/27 09:50:40;;;;;;;13.75;3.00;;;21.00;88.70;;;;;;4994196;28;20025;-43
2023/05/27 09:53:06;;;;;;;11.85;4.25;;;20.90;88.90;;;;;;4995945;28;20035;-44
2023/05/27 09:55:33;;;;;;;8.15;3.03;;;20.90;89.10;;;;;;5011197;28;20494;-43
2023/05/27 09:57:59;;;;;;;9.00;3.55;;;20.90;88.50;;;;;;5013019;28;20406;-43
2023/05/27 10:00:27;;;;;;;12.60;3.60;;;21.00;88.50;;;;;;5012018;28;20458;-43
2023/05/27 10:02:53;;;;;;;20.25;4.10;;;21.00;88.90;;;;;;5012049;28;20022;-43
2023/05/27 10:05:20;;;;;;;10.82;3.50;;;21.00;89.30;;;;;;5012516;28;20449;-44
2023/05/27 10:07:46;;;;;;;10.80;4.60;;;21.00;88.30;;;;;;5012599;28;20029;-43
2023/05/27 10:10:16;;;;;;;10.82;3.70;;;21.00;89.50;;;;;;5011969;28;20029;-45
2023/05/27 10:12:43;;;;;;;10.45;3.20;;;21.10;89.50;;;;;;5012032;28;20033;-43
2023/05/27 10:15:20;;;;;;;12.70;4.70;;;21.20;88.30;;;;;;4996329;28;20034;-45
2023/05/27 10:17:48;;;;;;;12.02;3.65;;;21.30;87.50;;;;;;4992636;28;20113;-46
2023/05/27 10:20:31;;;;;;;12.10;3.25;;;21.30;87.60;;;;;;4992219;28;20090;-44
2023/05/27 10:23:15;;;;;;;9.73;4.93;;;21.30;88.10;;;;;;4992114;28;20019;-44
2023/05/27 10:25:49;;;;;;;12.77;4.55;;;21.40;86.60;;;;;;4999324;28;20021;-43
2023/05/27 10:28:31;;;;;;;11.35;3.95;;;21.30;84.90;;;;;;5012140;28;20186;-44
2023/05/27 10:31:15;;;;;;;20.50;4.20;;;21.30;84.30;;;;;;5010496;28;20033;-45
2023/05/27 10:33:47;;;;;;;10.35;3.33;;;21.60;88.00;;;;;;4993758;28;20031;-43
2023/05/27 10:36:15;;;;;;;9.77;4.03;;;21.60;85.30;;;;;;4992176;28;20057;-44
2023/05/27 10:39:05;;;;;;;10.00;3.50;;;21.50;84.00;;;;;;5009413;28;20477;-45
2023/05/27 10:41:43;;;;;;;11.68;3.90;;;21.50;84.40;;;;;;5012427;28;20101;-48
2023/05/27 10:44:10;;;;;;;14.45;3.92;;;21.50;84.10;;;;;;5011429;28;20029;-44
2023/05/27 10:46:41;;;;;;;14.60;4.55;;;21.20;84.60;;;;;;4998040;28;20200;-45
2023/05/27 10:49:25;;;;;;;7.90;3.30;;;21.20;86.20;;;;;;5010108;28;20026;-43
2023/05/27 10:51:51;;;;;;;19.00;3.55;;;21.20;85.50;;;;;;5011742;28;20386;-43
2023/05/27 10:54:17;;;;;;;8.48;3.60;;;21.40;85.00;;;;;;5011610;28;20583;-45
2023/05/27 10:56:50;;;;;;;9.25;3.63;;;21.50;85.60;;;;;;5011409;28;20017;-41
2023/05/27 10:59:25;;;;;;;15.70;3.60;;;21.50;85.00;;;;;;5011237;28;20018;-44
2023/05/27 11:01:53;;;;;;;10.77;3.40;;;21.60;85.60;;;;;;5012337;28;20100;-42
2023/05/27 11:04:21;;;;;;;17.92;4.00;;;21.80;84.40;;;;;;4994786;28;20318;-44
2023/05/27 11:07:00;;;;;;;16.02;3.80;;;21.60;84.60;;;;;;5008637;28;20477;-42
2023/05/27 11:09:26;;;;;;;6.82;2.72;;;21.60;84.10;;;;;;5011933;28;20032;-44
2023/05/27 11:11:51;;;;;;;9.73;3.45;;;21.50;84.70;;;;;;5012162;28;20533;-43
2023/05/27 11:14:19;;;;;;;9.85;3.45;;;21.60;84.80;;;;;;5011446;28;20044;-45
2023/05/27 11:16:51;;;;;;;8.95;3.33;;;21.70;85.30;;;;;;5009945;28;20409;-43
2023/05/27 11:19:18;;;;;;;12.70;3.75;;;21.80;84.40;;;;;;5010783;28;20135;-40
2023/05/27 11:21:45;;;;;;;17.58;4.35;;;21.80;84.20;;;;;;5011580;28;20026;-49
2023/05/27 11:24:18;;;;;;;10.75;3.65;;;21.80;84.90;;;;;;5005947;28;20034;-46
2023/05/27 11:26:47;;;;;;;12.00;4.63;;;21.80;84.30;;;;;;4996654;28;20022;-45
2023/05/27 11:29:16;;;;;;;11.82;3.70;;;21.90;84.70;;;;;;5011477;28;20160;-43
2023/05/27 11:31:46;;;;;;;13.93;4.53;;;21.80;83.10;;;;;;5011746;28;20113;-45
2023/05/27 11:34:18;;;;;;;11.52;4.45;;;21.70;83.70;;;;;;5011432;28;20041;-42
2023/05/27 11:36:45;;;;;;;15.68;3.80;;;21.80;85.40;;;;;;5011165;28;20040;-45
2023/05/27 11:39:14;;;;;;;11.82;3.30;;;21.80;83.40;;;;;;5010907;28;20049;-44
2023/05/27 11:41:53;;;;;;;11.60;3.45;;;21.80;85.10;;;;;;5011701;28;20030;-43
2023/05/27 11:44:21;;;;;;;12.38;3.53;;;21.80;84.70;;;;;;5011029;28;20030;-44
2023/05/27 11:46:47;;;;;;;9.80;3.60;;;21.80;84.50;;;;;;5011592;28;20022;-43
2023/05/27 11:49:14;;;;;;;11.85;4.38;;;21.90;82.30;;;;;;5011433;28;20038;-44
2023/05/27 11:51:45;;;;;;;11.45;4.10;;;21.90;82.30;;;;;;5011980;28;20496;-46
2023/05/27 11:54:27;;;;;;;9.10;3.80;;;21.90;82.40;;;;;;5011258;28;20058;-45
2023/05/27 11:56:55;;;;;;;10.68;3.88;;;22.00;81.60;;;;;;5011327;28;20454;-43
2023/05/27 11:59:22;;;;;;;9.80;3.28;;;21.90;83.50;;;;;;5011125;28;20026;-45
2023/05/27 12:01:49;;;;;;;11.07;3.88;;;22.00;82.10;;;;;;5011307;28;20029;-43
2023/05/27 12:04:15;;;;;;;11.52;3.60;;;22.00;81.00;;;;;;5010587;28;20029;-44
2023/05/27 12:06:40;;;;;;;12.10;4.10;;;22.00;81.50;;;;;;5011920;28;20030;-44
2023/05/27 12:09:08;;;;;;;13.68;3.10;;;22.00;82.50;;;;;;5007625;28;20037;-47
2023/05/27 12:11:33;;;;;;;12.57;4.30;;;21.80;81.70;;;;;;5008577;28;20033;-42
2023/05/27 12:13:59;;;;;;;12.65;3.97;;;22.00;81.00;;;;;;5018603;22;20154;-45
2023/05/27 12:16:25;;;;;;;35.00;18.13;;;22.00;82.30;;;;;;4980946;28;20154;-48
2023/05/27 12:18:51;;;;;;;29.92;18.50;;;22.00;81.30;;;;;;4991684;28;20023;-45
2023/05/27 12:21:17;;;;;;;12.32;5.85;;;22.00;81.30;;;;;;4991078;28;20029;-48
2023/05/27 12:23:43;;;;;;;12.85;3.97;;;22.00;80.70;;;;;;4991341;28;20022;-47
2023/05/27 12:26:09;;;;;;;10.15;3.40;;;22.10;76.50;;;;;;4991656;28;20026;-47
2023/05/27 12:28:35;;;;;;;9.27;3.67;;;22.20;74.70;;;;;;4994459;28;20030;-46
2023/05/27 12:31:00;;;;;;;13.85;4.07;;;22.20;75.90;;;;;;4994836;28;20406;-46
2023/05/27 12:33:26;;;;;;;12.10;3.67;;;22.20;79.00;;;;;;4994860;28;20030;-47
2023/05/27 12:35:52;;;;;;;13.10;3.65;;;22.10;79.20;;;;;;4990453;28;20109;-47
2023/05/27 12:38:18;;;;;;;8.32;3.42;;;22.10;80.90;;;;;;4995184;28;20057;-48